sensor_id;sensor_type;location;lat;lon;timestamp;pressure;altitude;pressure_sealevel;temperature
11321;BMP180;5715;48.234;14.320;2023-08-01T00:00:47;97773.00;;;24.70
11321;BMP180;5715;48.234;14.320;2023-08-01T00:03:35;97781.00;;;24.80
11321;BMP180;5715;48.234;14.320;2023-08-01T00:06:23;97781.00;;;24.70
11321;BMP180;5715;48.234;14.320;2023-08-01T00:09:12;97786.00;;;24.70
11321;BMP180;5715;48.234;14.320;2023-08-01T00:11:59;97778.00;;;24.80
11321;BMP180;5715;48.234;14.320;2023-08-01T00:14:47;97771.00;;;24.80
11321;BMP180;5715;48.234;14.320;2023-08-01T00:17:34;97765.00;;;24.90
11321;BMP180;5715;48.234;14.320;2023-08-01T00:20:22;97770.00;;;24.90
11321;BMP180;5715;48.234;14.320;2023-08-01T00:23:10;97765.00;;;24.90
11321;BMP180;5715;48.234;14.320;2023-08-01T00:25:59;97768.00;;;24.90
11321;BMP180;5715;48.234;14.320;2023-08-01T00:28:46;97766.00;;;25.00
11321;BMP180;5715;48.234;14.320;2023-08-01T00:31:34;97762.00;;;24.90
11321;BMP180;5715;48.234;14.320;2023-08-01T00:34:21;97754.00;;;24.90
11321;BMP180;5715;48.234;14.320;2023-08-01T00:37:09;97762.00;;;24.90
11321;BMP180;5715;48.234;14.320;2023-08-01T00:39:57;97762.00;;;25.00
11321;BMP180;5715;48.234;14.320;2023-08-01T00:42:44;97754.00;;;25.10
11321;BMP180;5715;48.234;14.320;2023-08-01T00:45:32;97749.00;;;25.00
11321;BMP180;5715;48.234;14.320;2023-08-01T00:48:20;97750.00;;;25.00
11321;BMP180;5715;48.234;14.320;2023-08-01T00:51:09;97737.00;;;25.10
11321;BMP180;5715;48.234;14.320;2023-08-01T00:53:58;97724.00;;;25.10
11321;BMP180;5715;48.234;14.320;2023-08-01T00:56:46;97720.00;;;25.20
11321;BMP180;5715;48.234;14.320;2023-08-01T00:59:33;97717.00;;;25.20
11321;BMP180;5715;48.234;14.320;2023-08-01T01:02:22;97706.00;;;25.30
11321;BMP180;5715;48.234;14.320;2023-08-01T01:05:10;97714.00;;;25.10
11321;BMP180;5715;48.234;14.320;2023-08-01T01:07:58;97709.00;;;25.20
11321;BMP180;5715;48.234;14.320;2023-08-01T01:10:46;97703.00;;;25.30
11321;BMP180;5715;48.234;14.320;2023-08-01T01:13:34;97702.00;;;25.20
11321;BMP180;5715;48.234;14.320;2023-08-01T01:16:21;97697.00;;;25.20
11321;BMP180;5715;48.234;14.320;2023-08-01T01:19:09;97691.00;;;25.10
11321;BMP180;5715;48.234;14.320;2023-08-01T01:22:03;97681.00;;;25.00
11321;BMP180;5715;48.234;14.320;2023-08-01T01:24:55;97684.00;;;25.10
11321;BMP180;5715;48.234;14.320;2023-08-01T01:27:43;97681.00;;;25.10
11321;BMP180;5715;48.234;14.320;2023-08-01T01:30:34;97678.00;;;25.00
11321;BMP180;5715;48.234;14.320;2023-08-01T01:33:23;97673.00;;;24.80
11321;BMP180;5715;48.234;14.320;2023-08-01T01:36:10;97678.00;;;24.60
11321;BMP180;5715;48.234;14.320;2023-08-01T01:38:58;97682.00;;;24.70
11321;BMP180;5715;48.234;14.320;2023-08-01T01:41:46;97678.00;;;24.70
11321;BMP180;5715;48.234;14.320;2023-08-01T01:44:34;97669.00;;;24.90
11321;BMP180;5715;48.234;14.320;2023-08-01T01:47:21;97675.00;;;25.00
11321;BMP180;5715;48.234;14.320;2023-08-01T01:50:09;97675.00;;;25.10
11321;BMP180;5715;48.234;14.320;2023-08-01T01:52:57;97669.00;;;25.10
11321;BMP180;5715;48.234;14.320;2023-08-01T01:55:44;97653.00;;;25.30
11321;BMP180;5715;48.234;14.320;2023-08-01T01:58:32;97667.00;;;25.20
11321;BMP180;5715;48.234;14.320;2023-08-01T02:01:19;97648.00;;;25.20
11321;BMP180;5715;48.234;14.320;2023-08-01T02:04:07;97628.00;;;25.20
11321;BMP180;5715;48.234;14.320;2023-08-01T02:06:54;97626.00;;;25.10
11321;BMP180;5715;48.234;14.320;2023-08-01T02:09:42;97632.00;;;25.30
11321;BMP180;5715;48.234;14.320;2023-08-01T02:12:29;97641.00;;;25.20
11321;BMP180;5715;48.234;14.320;2023-08-01T02:15:18;97646.00;;;25.00
11321;BMP180;5715;48.234;14.320;2023-08-01T02:18:06;97635.00;;;25.00
11321;BMP180;5715;48.234;14.320;2023-08-01T02:20:54;97639.00;;;24.90
11321;BMP180;5715;48.234;14.320;2023-08-01T02:23:41;97647.00;;;25.00
11321;BMP180;5715;48.234;14.320;2023-08-01T02:26:29;97637.00;;;25.00
11321;BMP180;5715;48.234;14.320;2023-08-01T02:29:17;97633.00;;;25.00
11321;BMP180;5715;48.234;14.320;2023-08-01T02:32:05;97631.00;;;25.00
11321;BMP180;5715;48.234;14.320;2023-08-01T02:34:52;97625.00;;;25.10
11321;BMP180;5715;48.234;14.320;2023-08-01T02:37:40;97619.00;;;25.20
11321;BMP180;5715;48.234;14.320;2023-08-01T02:40:27;97624.00;;;25.20
11321;BMP180;5715;48.234;14.320;2023-08-01T02:43:15;97617.00;;;25.10
11321;BMP180;5715;48.234;14.320;2023-08-01T02:46:02;97622.00;;;25.10
11321;BMP180;5715;48.234;14.320;2023-08-01T02:48:51;97610.00;;;25.10
11321;BMP180;5715;48.234;14.320;2023-08-01T02:51:38;97595.00;;;25.10
11321;BMP180;5715;48.234;14.320;2023-08-01T02:54:26;97592.00;;;25.10
11321;BMP180;5715;48.234;14.320;2023-08-01T02:57:13;97581.00;;;25.20
11321;BMP180;5715;48.234;14.320;2023-08-01T03:00:01;97582.00;;;25.30
11321;BMP180;5715;48.234;14.320;2023-08-01T03:02:52;97587.00;;;25.10
11321;BMP180;5715;48.234;14.320;2023-08-01T03:05:40;97597.00;;;25.10
11321;BMP180;5715;48.234;14.320;2023-08-01T03:08:27;97585.00;;;25.10
11321;BMP180;5715;48.234;14.320;2023-08-01T03:11:15;97585.00;;;25.10
11321;BMP180;5715;48.234;14.320;2023-08-01T03:14:02;97581.00;;;25.10
11321;BMP180;5715;48.234;14.320;2023-08-01T03:16:51;97568.00;;;25.10
11321;BMP180;5715;48.234;14.320;2023-08-01T03:19:40;97562.00;;;24.90
11321;BMP180;5715;48.234;14.320;2023-08-01T03:22:28;97558.00;;;25.00
11321;BMP180;5715;48.234;14.320;2023-08-01T03:25:16;97550.00;;;25.10
11321;BMP180;5715;48.234;14.320;2023-08-01T03:28:04;97554.00;;;25.20
11321;BMP180;5715;48.234;14.320;2023-08-01T03:30:53;97550.00;;;25.20
11321;BMP180;5715;48.234;14.320;2023-08-01T03:33:41;97551.00;;;25.20
11321;BMP180;5715;48.234;14.320;2023-08-01T03:36:29;97559.00;;;25.20
11321;BMP180;5715;48.234;14.320;2023-08-01T03:39:16;97577.00;;;25.20
11321;BMP180;5715;48.234;14.320;2023-08-01T03:42:04;97573.00;;;25.20
11321;BMP180;5715;48.234;14.320;2023-08-01T03:44:51;97572.00;;;25.20
11321;BMP180;5715;48.234;14.320;2023-08-01T03:47:39;97572.00;;;25.40
11321;BMP180;5715;48.234;14.320;2023-08-01T03:50:26;97560.00;;;25.30
11321;BMP180;5715;48.234;14.320;2023-08-01T03:53:14;97560.00;;;25.30
11321;BMP180;5715;48.234;14.320;2023-08-01T03:56:02;97560.00;;;25.20
11321;BMP180;5715;48.234;14.320;2023-08-01T03:58:49;97552.00;;;25.30
11321;BMP180;5715;48.234;14.320;2023-08-01T04:01:37;97547.00;;;25.30
11321;BMP180;5715;48.234;14.320;2023-08-01T04:04:25;97548.00;;;25.30
11321;BMP180;5715;48.234;14.320;2023-08-01T04:07:12;97547.00;;;25.40
11321;BMP180;5715;48.234;14.320;2023-08-01T04:10:00;97547.00;;;25.40
11321;BMP180;5715;48.234;14.320;2023-08-01T04:12:47;97554.00;;;25.40
11321;BMP180;5715;48.234;14.320;2023-08-01T04:15:35;97562.00;;;25.30
11321;BMP180;5715;48.234;14.320;2023-08-01T04:18:22;97572.00;;;25.40
11321;BMP180;5715;48.234;14.320;2023-08-01T04:21:13;97583.00;;;25.40
11321;BMP180;5715;48.234;14.320;2023-08-01T04:24:01;97567.00;;;25.40
11321;BMP180;5715;48.234;14.320;2023-08-01T04:26:49;97545.00;;;25.20
11321;BMP180;5715;48.234;14.320;2023-08-01T04:29:36;97550.00;;;25.40
11321;BMP180;5715;48.234;14.320;2023-08-01T04:32:24;97563.00;;;25.40
11321;BMP180;5715;48.234;14.320;2023-08-01T04:35:11;97568.00;;;25.50
11321;BMP180;5715;48.234;14.320;2023-08-01T04:37:59;97550.00;;;25.40
11321;BMP180;5715;48.234;14.320;2023-08-01T04:40:46;97565.00;;;25.50
11321;BMP180;5715;48.234;14.320;2023-08-01T04:43:34;97568.00;;;25.60
11321;BMP180;5715;48.234;14.320;2023-08-01T04:46:21;97567.00;;;25.60
11321;BMP180;5715;48.234;14.320;2023-08-01T04:49:09;97563.00;;;25.60
11321;BMP180;5715;48.234;14.320;2023-08-01T04:51:56;97568.00;;;25.70
11321;BMP180;5715;48.234;14.320;2023-08-01T04:54:44;97561.00;;;25.70
11321;BMP180;5715;48.234;14.320;2023-08-01T04:57:32;97548.00;;;25.50
11321;BMP180;5715;48.234;14.320;2023-08-01T05:00:19;97548.00;;;25.80
11321;BMP180;5715;48.234;14.320;2023-08-01T05:03:07;97540.00;;;25.50
11321;BMP180;5715;48.234;14.320;2023-08-01T05:05:55;97545.00;;;25.60
11321;BMP180;5715;48.234;14.320;2023-08-01T05:08:42;97544.00;;;25.70
11321;BMP180;5715;48.234;14.320;2023-08-01T05:11:30;97544.00;;;25.70
11321;BMP180;5715;48.234;14.320;2023-08-01T05:14:17;97533.00;;;25.70
11321;BMP180;5715;48.234;14.320;2023-08-01T05:17:05;97538.00;;;25.60
11321;BMP180;5715;48.234;14.320;2023-08-01T05:19:52;97542.00;;;25.70
11321;BMP180;5715;48.234;14.320;2023-08-01T05:22:40;97547.00;;;25.80
11321;BMP180;5715;48.234;14.320;2023-08-01T05:25:27;97565.00;;;25.80
11321;BMP180;5715;48.234;14.320;2023-08-01T05:28:15;97577.00;;;25.70
11321;BMP180;5715;48.234;14.320;2023-08-01T05:31:03;97583.00;;;25.60
11321;BMP180;5715;48.234;14.320;2023-08-01T05:33:51;97585.00;;;25.80
11321;BMP180;5715;48.234;14.320;2023-08-01T05:36:38;97583.00;;;25.70
11321;BMP180;5715;48.234;14.320;2023-08-01T05:39:26;97581.00;;;25.70
11321;BMP180;5715;48.234;14.320;2023-08-01T05:42:14;97583.00;;;25.60
11321;BMP180;5715;48.234;14.320;2023-08-01T05:45:01;97584.00;;;25.70
11321;BMP180;5715;48.234;14.320;2023-08-01T05:47:49;97583.00;;;25.90
11321;BMP180;5715;48.234;14.320;2023-08-01T05:50:36;97579.00;;;25.80
11321;BMP180;5715;48.234;14.320;2023-08-01T05:53:24;97574.00;;;25.70
11321;BMP180;5715;48.234;14.320;2023-08-01T05:56:13;97575.00;;;25.80
11321;BMP180;5715;48.234;14.320;2023-08-01T05:59:01;97579.00;;;25.80
11321;BMP180;5715;48.234;14.320;2023-08-01T06:01:49;97583.00;;;25.80
11321;BMP180;5715;48.234;14.320;2023-08-01T06:04:36;97588.00;;;25.80
11321;BMP180;5715;48.234;14.320;2023-08-01T06:07:26;97584.00;;;25.90
11321;BMP180;5715;48.234;14.320;2023-08-01T06:10:14;97586.00;;;26.00
11321;BMP180;5715;48.234;14.320;2023-08-01T06:13:01;97596.00;;;26.20
11321;BMP180;5715;48.234;14.320;2023-08-01T06:15:49;97597.00;;;26.20
11321;BMP180;5715;48.234;14.320;2023-08-01T06:18:36;97600.00;;;26.20
11321;BMP180;5715;48.234;14.320;2023-08-01T06:21:24;97600.00;;;26.10
11321;BMP180;5715;48.234;14.320;2023-08-01T06:24:11;97605.00;;;26.00
11321;BMP180;5715;48.234;14.320;2023-08-01T06:26:59;97611.00;;;25.90
11321;BMP180;5715;48.234;14.320;2023-08-01T06:29:47;97614.00;;;25.40
11321;BMP180;5715;48.234;14.320;2023-08-01T06:32:34;97614.00;;;25.50
11321;BMP180;5715;48.234;14.320;2023-08-01T06:35:22;97603.00;;;25.70
11321;BMP180;5715;48.234;14.320;2023-08-01T06:38:10;97607.00;;;26.00
11321;BMP180;5715;48.234;14.320;2023-08-01T06:40:57;97615.00;;;25.90
11321;BMP180;5715;48.234;14.320;2023-08-01T06:43:45;97617.00;;;26.00
11321;BMP180;5715;48.234;14.320;2023-08-01T06:46:33;97622.00;;;26.00
11321;BMP180;5715;48.234;14.320;2023-08-01T06:49:20;97621.00;;;26.00
11321;BMP180;5715;48.234;14.320;2023-08-01T06:52:08;97611.00;;;26.10
11321;BMP180;5715;48.234;14.320;2023-08-01T06:54:56;97615.00;;;26.10
11321;BMP180;5715;48.234;14.320;2023-08-01T06:57:43;97613.00;;;26.30
11321;BMP180;5715;48.234;14.320;2023-08-01T07:00:31;97601.00;;;26.20
11321;BMP180;5715;48.234;14.320;2023-08-01T07:03:19;97618.00;;;26.20
11321;BMP180;5715;48.234;14.320;2023-08-01T07:06:06;97618.00;;;26.20
11321;BMP180;5715;48.234;14.320;2023-08-01T07:08:54;97612.00;;;26.20
11321;BMP180;5715;48.234;14.320;2023-08-01T07:11:42;97616.00;;;26.30
11321;BMP180;5715;48.234;14.320;2023-08-01T07:14:29;97607.00;;;26.40
11321;BMP180;5715;48.234;14.320;2023-08-01T07:17:17;97598.00;;;26.40
11321;BMP180;5715;48.234;14.320;2023-08-01T07:20:05;97593.00;;;26.30
11321;BMP180;5715;48.234;14.320;2023-08-01T07:22:53;97594.00;;;26.20
11321;BMP180;5715;48.234;14.320;2023-08-01T07:25:40;97592.00;;;26.10
11321;BMP180;5715;48.234;14.320;2023-08-01T07:28:28;97598.00;;;26.00
11321;BMP180;5715;48.234;14.320;2023-08-01T07:31:16;97601.00;;;26.00
11321;BMP180;5715;48.234;14.320;2023-08-01T07:34:03;97607.00;;;26.20
11321;BMP180;5715;48.234;14.320;2023-08-01T07:36:51;97607.00;;;26.20
11321;BMP180;5715;48.234;14.320;2023-08-01T07:39:38;97607.00;;;26.20
11321;BMP180;5715;48.234;14.320;2023-08-01T07:42:26;97615.00;;;26.20
11321;BMP180;5715;48.234;14.320;2023-08-01T07:45:14;97610.00;;;26.30
11321;BMP180;5715;48.234;14.320;2023-08-01T07:48:01;97610.00;;;26.40
11321;BMP180;5715;48.234;14.320;2023-08-01T07:50:49;97591.00;;;26.10
11321;BMP180;5715;48.234;14.320;2023-08-01T07:53:37;97595.00;;;25.90
11321;BMP180;5715;48.234;14.320;2023-08-01T07:56:24;97596.00;;;25.80
11321;BMP180;5715;48.234;14.320;2023-08-01T07:59:12;97600.00;;;25.90
11321;BMP180;5715;48.234;14.320;2023-08-01T08:02:00;97592.00;;;25.60
11321;BMP180;5715;48.234;14.320;2023-08-01T08:04:47;97585.00;;;25.90
11321;BMP180;5715;48.234;14.320;2023-08-01T08:07:36;97583.00;;;25.70
11321;BMP180;5715;48.234;14.320;2023-08-01T08:10:24;97591.00;;;25.70
11321;BMP180;5715;48.234;14.320;2023-08-01T08:13:12;97581.00;;;25.60
11321;BMP180;5715;48.234;14.320;2023-08-01T08:15:59;97592.00;;;25.90
11321;BMP180;5715;48.234;14.320;2023-08-01T08:18:47;97584.00;;;25.90
11321;BMP180;5715;48.234;14.320;2023-08-01T08:21:35;97578.00;;;26.00
11321;BMP180;5715;48.234;14.320;2023-08-01T08:24:22;97582.00;;;25.50
11321;BMP180;5715;48.234;14.320;2023-08-01T08:27:10;97581.00;;;26.00
11321;BMP180;5715;48.234;14.320;2023-08-01T08:29:57;97582.00;;;25.80
11321;BMP180;5715;48.234;14.320;2023-08-01T08:32:45;97593.00;;;25.70
11321;BMP180;5715;48.234;14.320;2023-08-01T08:35:36;97594.00;;;25.60
11321;BMP180;5715;48.234;14.320;2023-08-01T08:38:23;97601.00;;;25.80
11321;BMP180;5715;48.234;14.320;2023-08-01T08:41:19;97597.00;;;25.50
11321;BMP180;5715;48.234;14.320;2023-08-01T08:44:09;97586.00;;;25.60
11321;BMP180;5715;48.234;14.320;2023-08-01T08:47:03;97581.00;;;25.30
11321;BMP180;5715;48.234;14.320;2023-08-01T08:49:55;97578.00;;;25.60
11321;BMP180;5715;48.234;14.320;2023-08-01T08:52:45;97576.00;;;25.20
11321;BMP180;5715;48.234;14.320;2023-08-01T08:55:33;97571.00;;;25.40
11321;BMP180;5715;48.234;14.320;2023-08-01T08:58:23;97570.00;;;25.40
11321;BMP180;5715;48.234;14.320;2023-08-01T09:01:10;97572.00;;;25.20
11321;BMP180;5715;48.234;14.320;2023-08-01T09:03:58;97567.00;;;25.50
11321;BMP180;5715;48.234;14.320;2023-08-01T09:06:51;97562.00;;;25.40
11321;BMP180;5715;48.234;14.320;2023-08-01T09:09:41;97559.00;;;25.20
11321;BMP180;5715;48.234;14.320;2023-08-01T09:12:36;97558.00;;;25.30
11321;BMP180;5715;48.234;14.320;2023-08-01T09:15:27;97553.00;;;25.30
11321;BMP180;5715;48.234;14.320;2023-08-01T09:18:16;97553.00;;;25.80
11321;BMP180;5715;48.234;14.320;2023-08-01T09:21:03;97547.00;;;25.90
11321;BMP180;5715;48.234;14.320;2023-08-01T09:23:51;97528.00;;;26.10
11321;BMP180;5715;48.234;14.320;2023-08-01T09:26:39;97530.00;;;26.30
11321;BMP180;5715;48.234;14.320;2023-08-01T09:29:28;97523.00;;;26.40
11321;BMP180;5715;48.234;14.320;2023-08-01T09:32:16;97523.00;;;26.40
11321;BMP180;5715;48.234;14.320;2023-08-01T09:35:04;97521.00;;;26.20
11321;BMP180;5715;48.234;14.320;2023-08-01T09:37:52;97529.00;;;26.50
11321;BMP180;5715;48.234;14.320;2023-08-01T09:40:40;97522.00;;;26.40
11321;BMP180;5715;48.234;14.320;2023-08-01T09:43:35;97518.00;;;26.00
11321;BMP180;5715;48.234;14.320;2023-08-01T09:46:25;97522.00;;;26.00
11321;BMP180;5715;48.234;14.320;2023-08-01T09:49:13;97520.00;;;26.30
11321;BMP180;5715;48.234;14.320;2023-08-01T09:52:03;97519.00;;;26.20
11321;BMP180;5715;48.234;14.320;2023-08-01T09:54:51;97524.00;;;26.30
11321;BMP180;5715;48.234;14.320;2023-08-01T09:57:42;97522.00;;;26.40
11321;BMP180;5715;48.234;14.320;2023-08-01T10:00:33;97524.00;;;25.80
11321;BMP180;5715;48.234;14.320;2023-08-01T10:03:21;97522.00;;;26.60
11321;BMP180;5715;48.234;14.320;2023-08-01T10:06:12;97530.00;;;26.50
11321;BMP180;5715;48.234;14.320;2023-08-01T10:09:02;97533.00;;;26.30
11321;BMP180;5715;48.234;14.320;2023-08-01T10:11:50;97531.00;;;26.30
11321;BMP180;5715;48.234;14.320;2023-08-01T10:14:39;97519.00;;;26.10
11321;BMP180;5715;48.234;14.320;2023-08-01T10:17:28;97510.00;;;26.40
11321;BMP180;5715;48.234;14.320;2023-08-01T10:20:18;97500.00;;;26.40
11321;BMP180;5715;48.234;14.320;2023-08-01T10:23:09;97499.00;;;26.40
11321;BMP180;5715;48.234;14.320;2023-08-01T10:25:59;97495.00;;;26.40
11321;BMP180;5715;48.234;14.320;2023-08-01T10:28:52;97483.00;;;26.40
11321;BMP180;5715;48.234;14.320;2023-08-01T10:31:54;97477.00;;;26.50
11321;BMP180;5715;48.234;14.320;2023-08-01T10:34:51;97467.00;;;26.50
11321;BMP180;5715;48.234;14.320;2023-08-01T10:37:44;97475.00;;;26.70
11321;BMP180;5715;48.234;14.320;2023-08-01T10:40:42;97475.00;;;26.90
11321;BMP180;5715;48.234;14.320;2023-08-01T10:43:30;97473.00;;;26.60
11321;BMP180;5715;48.234;14.320;2023-08-01T10:46:18;97483.00;;;26.70
11321;BMP180;5715;48.234;14.320;2023-08-01T10:49:05;97481.00;;;27.00
11321;BMP180;5715;48.234;14.320;2023-08-01T10:51:53;97473.00;;;27.00
11321;BMP180;5715;48.234;14.320;2023-08-01T10:54:40;97473.00;;;27.00
11321;BMP180;5715;48.234;14.320;2023-08-01T10:57:30;97479.00;;;27.00
11321;BMP180;5715;48.234;14.320;2023-08-01T11:00:18;97491.00;;;27.00
11321;BMP180;5715;48.234;14.320;2023-08-01T11:03:08;97480.00;;;27.20
11321;BMP180;5715;48.234;14.320;2023-08-01T11:05:58;97481.00;;;27.00
11321;BMP180;5715;48.234;14.320;2023-08-01T11:08:46;97473.00;;;27.20
11321;BMP180;5715;48.234;14.320;2023-08-01T11:11:34;97482.00;;;26.90
11321;BMP180;5715;48.234;14.320;2023-08-01T11:14:25;97490.00;;;27.00
11321;BMP180;5715;48.234;14.320;2023-08-01T11:17:13;97485.00;;;27.00
11321;BMP180;5715;48.234;14.320;2023-08-01T11:20:06;97470.00;;;27.30
11321;BMP180;5715;48.234;14.320;2023-08-01T11:23:00;97472.00;;;27.10
11321;BMP180;5715;48.234;14.320;2023-08-01T11:25:48;97460.00;;;27.40
11321;BMP180;5715;48.234;14.320;2023-08-01T11:28:37;97466.00;;;27.70
11321;BMP180;5715;48.234;14.320;2023-08-01T11:31:25;97459.00;;;27.70
11321;BMP180;5715;48.234;14.320;2023-08-01T11:34:12;97457.00;;;27.70
11321;BMP180;5715;48.234;14.320;2023-08-01T11:37:00;97453.00;;;27.70
11321;BMP180;5715;48.234;14.320;2023-08-01T11:39:48;97454.00;;;27.60
11321;BMP180;5715;48.234;14.320;2023-08-01T11:42:38;97451.00;;;27.40
11321;BMP180;5715;48.234;14.320;2023-08-01T11:45:26;97448.00;;;27.40
11321;BMP180;5715;48.234;14.320;2023-08-01T11:48:14;97452.00;;;27.30
11321;BMP180;5715;48.234;14.320;2023-08-01T11:51:02;97465.00;;;27.80
11321;BMP180;5715;48.234;14.320;2023-08-01T11:54:04;97461.00;;;27.60
11321;BMP180;5715;48.234;14.320;2023-08-01T11:57:01;97465.00;;;27.50
11321;BMP180;5715;48.234;14.320;2023-08-01T11:59:50;97456.00;;;27.60
11321;BMP180;5715;48.234;14.320;2023-08-01T12:02:38;97456.00;;;27.60
11321;BMP180;5715;48.234;14.320;2023-08-01T12:05:26;97455.00;;;27.50
11321;BMP180;5715;48.234;14.320;2023-08-01T12:08:15;97451.00;;;27.50
11321;BMP180;5715;48.234;14.320;2023-08-01T12:11:03;97450.00;;;27.40
11321;BMP180;5715;48.234;14.320;2023-08-01T12:14:14;97444.00;;;27.40
11321;BMP180;5715;48.234;14.320;2023-08-01T12:17:02;97440.00;;;27.30
11321;BMP180;5715;48.234;14.320;2023-08-01T12:19:49;97434.00;;;27.40
11321;BMP180;5715;48.234;14.320;2023-08-01T12:22:37;97433.00;;;27.40
11321;BMP180;5715;48.234;14.320;2023-08-01T12:25:25;97423.00;;;27.40
11321;BMP180;5715;48.234;14.320;2023-08-01T12:28:14;97417.00;;;27.50
11321;BMP180;5715;48.234;14.320;2023-08-01T12:31:02;97409.00;;;27.40
11321;BMP180;5715;48.234;14.320;2023-08-01T12:33:51;97402.00;;;27.50
11321;BMP180;5715;48.234;14.320;2023-08-01T12:36:41;97399.00;;;27.40
11321;BMP180;5715;48.234;14.320;2023-08-01T12:39:28;97407.00;;;27.20
11321;BMP180;5715;48.234;14.320;2023-08-01T12:42:16;97399.00;;;27.20
11321;BMP180;5715;48.234;14.320;2023-08-01T12:45:04;97392.00;;;27.40
11321;BMP180;5715;48.234;14.320;2023-08-01T12:47:52;97392.00;;;27.30
11321;BMP180;5715;48.234;14.320;2023-08-01T12:50:44;97397.00;;;27.40
11321;BMP180;5715;48.234;14.320;2023-08-01T12:53:36;97400.00;;;27.40
11321;BMP180;5715;48.234;14.320;2023-08-01T12:56:27;97404.00;;;27.30
11321;BMP180;5715;48.234;14.320;2023-08-01T12:59:14;97414.00;;;27.20
11321;BMP180;5715;48.234;14.320;2023-08-01T13:02:02;97415.00;;;27.10
11321;BMP180;5715;48.234;14.320;2023-08-01T13:04:55;97421.00;;;27.20
11321;BMP180;5715;48.234;14.320;2023-08-01T13:07:43;97428.00;;;27.00
11321;BMP180;5715;48.234;14.320;2023-08-01T13:10:36;97435.00;;;27.00
11321;BMP180;5715;48.234;14.320;2023-08-01T13:13:24;97437.00;;;26.80
11321;BMP180;5715;48.234;14.320;2023-08-01T13:16:11;97445.00;;;26.90
11321;BMP180;5715;48.234;14.320;2023-08-01T13:18:59;97458.00;;;26.80
11321;BMP180;5715;48.234;14.320;2023-08-01T13:21:47;97460.00;;;26.80
11321;BMP180;5715;48.234;14.320;2023-08-01T13:24:34;97452.00;;;26.80
11321;BMP180;5715;48.234;14.320;2023-08-01T13:27:22;97459.00;;;26.70
11321;BMP180;5715;48.234;14.320;2023-08-01T13:30:10;97465.00;;;26.70
11321;BMP180;5715;48.234;14.320;2023-08-01T13:33:01;97455.00;;;26.70
11321;BMP180;5715;48.234;14.320;2023-08-01T13:35:52;97435.00;;;26.30
11321;BMP180;5715;48.234;14.320;2023-08-01T13:38:41;97445.00;;;26.60
11321;BMP180;5715;48.234;14.320;2023-08-01T13:41:28;97450.00;;;26.70
11321;BMP180;5715;48.234;14.320;2023-08-01T13:44:16;97446.00;;;26.50
11321;BMP180;5715;48.234;14.320;2023-08-01T13:47:04;97448.00;;;26.20
11321;BMP180;5715;48.234;14.320;2023-08-01T13:49:54;97441.00;;;26.40
11321;BMP180;5715;48.234;14.320;2023-08-01T13:52:42;97440.00;;;26.30
11321;BMP180;5715;48.234;14.320;2023-08-01T13:55:31;97427.00;;;26.30
11321;BMP180;5715;48.234;14.320;2023-08-01T13:58:19;97425.00;;;26.00
11321;BMP180;5715;48.234;14.320;2023-08-01T14:01:08;97426.00;;;26.00
11321;BMP180;5715;48.234;14.320;2023-08-01T14:03:56;97415.00;;;26.20
11321;BMP180;5715;48.234;14.320;2023-08-01T14:06:44;97403.00;;;26.20
11321;BMP180;5715;48.234;14.320;2023-08-01T14:09:31;97404.00;;;26.50
11321;BMP180;5715;48.234;14.320;2023-08-01T14:12:19;97395.00;;;26.40
11321;BMP180;5715;48.234;14.320;2023-08-01T14:15:08;97392.00;;;26.90
11321;BMP180;5715;48.234;14.320;2023-08-01T14:17:56;97397.00;;;26.50
11321;BMP180;5715;48.234;14.320;2023-08-01T14:20:43;97394.00;;;26.80
11321;BMP180;5715;48.234;14.320;2023-08-01T14:23:31;97392.00;;;26.70
11321;BMP180;5715;48.234;14.320;2023-08-01T14:26:19;97390.00;;;26.70
11321;BMP180;5715;48.234;14.320;2023-08-01T14:29:06;97378.00;;;26.40
11321;BMP180;5715;48.234;14.320;2023-08-01T14:31:54;97382.00;;;26.70
11321;BMP180;5715;48.234;14.320;2023-08-01T14:34:41;97382.00;;;26.90
11321;BMP180;5715;48.234;14.320;2023-08-01T14:37:29;97388.00;;;27.00
11321;BMP180;5715;48.234;14.320;2023-08-01T14:40:17;97380.00;;;27.10
11321;BMP180;5715;48.234;14.320;2023-08-01T14:43:05;97379.00;;;27.20
11321;BMP180;5715;48.234;14.320;2023-08-01T14:45:53;97387.00;;;27.20
11321;BMP180;5715;48.234;14.320;2023-08-01T14:48:41;97393.00;;;27.40
11321;BMP180;5715;48.234;14.320;2023-08-01T14:51:29;97402.00;;;26.90
11321;BMP180;5715;48.234;14.320;2023-08-01T14:54:16;97423.00;;;26.80
11321;BMP180;5715;48.234;14.320;2023-08-01T14:57:24;97427.00;;;26.40
11321;BMP180;5715;48.234;14.320;2023-08-01T15:00:13;97434.00;;;26.60
11321;BMP180;5715;48.234;14.320;2023-08-01T15:03:00;97429.00;;;26.60
11321;BMP180;5715;48.234;14.320;2023-08-01T15:05:48;97429.00;;;26.50
11321;BMP180;5715;48.234;14.320;2023-08-01T15:08:38;97427.00;;;26.40
11321;BMP180;5715;48.234;14.320;2023-08-01T15:11:26;97445.00;;;26.50
11321;BMP180;5715;48.234;14.320;2023-08-01T15:14:13;97446.00;;;26.80
11321;BMP180;5715;48.234;14.320;2023-08-01T15:17:01;97453.00;;;26.60
11321;BMP180;5715;48.234;14.320;2023-08-01T15:19:49;97448.00;;;26.40
11321;BMP180;5715;48.234;14.320;2023-08-01T15:22:37;97441.00;;;26.20
11321;BMP180;5715;48.234;14.320;2023-08-01T15:25:24;97434.00;;;26.30
11321;BMP180;5715;48.234;14.320;2023-08-01T15:28:12;97426.00;;;26.30
11321;BMP180;5715;48.234;14.320;2023-08-01T15:31:05;97432.00;;;26.50
11321;BMP180;5715;48.234;14.320;2023-08-01T15:33:53;97435.00;;;26.40
11321;BMP180;5715;48.234;14.320;2023-08-01T15:36:46;97429.00;;;26.50
11321;BMP180;5715;48.234;14.320;2023-08-01T15:39:37;97431.00;;;26.40
11321;BMP180;5715;48.234;14.320;2023-08-01T15:42:24;97435.00;;;26.50
11321;BMP180;5715;48.234;14.320;2023-08-01T15:45:12;97432.00;;;26.60
11321;BMP180;5715;48.234;14.320;2023-08-01T15:47:59;97430.00;;;26.60
11321;BMP180;5715;48.234;14.320;2023-08-01T15:50:47;97453.00;;;26.40
11321;BMP180;5715;48.234;14.320;2023-08-01T15:53:35;97447.00;;;26.50
11321;BMP180;5715;48.234;14.320;2023-08-01T15:56:23;97444.00;;;26.50
11321;BMP180;5715;48.234;14.320;2023-08-01T15:59:10;97449.00;;;26.50
11321;BMP180;5715;48.234;14.320;2023-08-01T16:01:58;97446.00;;;26.30
11321;BMP180;5715;48.234;14.320;2023-08-01T16:04:45;97436.00;;;26.40
11321;BMP180;5715;48.234;14.320;2023-08-01T16:07:33;97430.00;;;26.20
11321;BMP180;5715;48.234;14.320;2023-08-01T16:10:21;97430.00;;;26.60